Time;durP1;ratioP1;P1;durP2;ratioP2;P2;SDS_P1;SDS_P2;PMS_P1;PMS_P2;Temp;Humidity;BMP_temperature;BMP_pressure;BME280_temperature;BME280_humidity;BME280_pressure;Samples;Min_cycle;Max_cycle;Signal;HPM_P1;HPM_P2
2021/06/19 00:01:33;;;;;;;14.45;9.20;;;;;;;-139.48;100.00;61774.03;5073086;28;20087;-70
2021/06/19 00:04:17;;;;;;;20.00;11.25;;;;;;;-139.48;100.00;61774.03;5073420;28;20052;-70
2021/06/19 00:07:03;;;;;;;16.77;10.50;;;;;;;-139.48;100.00;61774.03;5072470;28;20160;-70
2021/06/19 00:09:47;;;;;;;17.60;10.80;;;;;;;-139.48;100.00;61774.03;5072332;28;20052;-70
2021/06/19 00:12:31;;;;;;;13.63;10.57;;;;;;;-139.48;100.00;61774.03;5072235;28;20110;-70
2021/06/19 00:15:17;;;;;;;19.40;11.50;;;;;;;-139.48;100.00;61774.03;5058174;28;20409;-70
2021/06/19 00:18:02;;;;;;;20.60;9.88;;;;;;;-139.48;100.00;61774.03;5057864;28;20158;-70
2021/06/19 00:20:46;;;;;;;21.67;10.68;;;;;;;-139.48;100.00;61774.03;5057790;28;20051;-70
2021/06/19 00:23:30;;;;;;;24.60;12.25;;;;;;;-139.48;100.00;61774.03;5072595;28;20098;-71
2021/06/19 00:26:14;;;;;;;18.45;10.43;;;;;;;-139.48;100.00;61774.03;5072354;28;20042;-70
2021/06/19 00:28:58;;;;;;;17.35;10.27;;;;;;;-139.48;100.00;61774.03;5072120;28;20094;-70
2021/06/19 00:31:42;;;;;;;19.63;10.73;;;;;;;-139.48;100.00;61774.03;5073163;28;20079;-69
2021/06/19 00:34:26;;;;;;;22.50;12.55;;;;;;;-139.48;100.00;61774.03;5071875;28;20048;-71
2021/06/19 00:37:11;;;;;;;15.52;10.88;;;;;;;-139.48;100.00;61774.03;5057901;28;20412;-71
2021/06/19 00:39:55;;;;;;;18.15;12.43;;;;;;;-139.48;100.00;61774.03;5073097;28;20079;-70
2021/06/19 00:42:40;;;;;;;24.77;12.00;;;;;;;-139.48;100.00;61774.03;5071857;28;20051;-71
2021/06/19 00:45:29;;;;;;;17.15;12.95;;;;;;;-139.48;100.00;61774.03;5072391;28;20171;-70
2021/06/19 00:48:13;;;;;;;18.42;11.60;;;;;;;-139.48;100.00;61774.03;5057573;28;20047;-70
2021/06/19 00:50:57;;;;;;;24.10;12.25;;;;;;;-139.48;100.00;61774.03;5073036;28;20052;-71
2021/06/19 00:53:41;;;;;;;16.40;12.10;;;;;;;-139.48;100.00;61774.03;5086496;28;20048;-70
2021/06/19 00:56:25;;;;;;;19.63;12.95;;;;;;;-139.48;100.00;61774.03;5071991;28;20408;-71
2021/06/19 00:59:09;;;;;;;22.70;13.05;;;;;;;-139.48;100.00;61774.03;5072067;28;20055;-70
2021/06/19 01:01:54;;;;;;;20.55;12.25;;;;;;;-139.48;100.00;61774.03;5057469;28;20067;-70
2021/06/19 01:04:38;;;;;;;17.70;13.70;;;;;;;-139.48;100.00;61774.03;5072040;28;20043;-69
2021/06/19 01:07:22;;;;;;;18.02;12.23;;;;;;;-139.48;100.00;61774.03;5074006;28;20055;-70
2021/06/19 01:10:07;;;;;;;21.63;14.10;;;;;;;-139.48;100.00;61774.03;5075518;28;20071;-70
2021/06/19 01:12:51;;;;;;;18.08;12.68;;;;;;;-139.48;100.00;61774.03;5075366;28;20047;-70
2021/06/19 01:15:35;;;;;;;25.48;14.40;;;;;;;-139.48;100.00;61774.03;5061094;28;20093;-70
2021/06/19 01:18:19;;;;;;;23.77;13.32;;;;;;;-139.48;100.00;61774.03;5076376;28;20082;-70
2021/06/19 01:21:03;;;;;;;;;;;;;;;-139.48;100.00;61774.03;5075544;28;20048;-71
2021/06/19 01:23:47;;;;;;;15.77;12.50;;;;;;;-139.48;100.00;61774.03;5060862;28;19918;-70
2021/06/19 01:26:31;;;;;;;20.02;14.20;;;;;;;-139.48;100.00;61774.03;5061128;28;20076;-71
2021/06/19 01:29:15;;;;;;;21.02;14.07;;;;;;;-139.48;100.00;61774.03;5075318;28;20051;-69
2021/06/19 01:31:59;;;;;;;20.45;12.85;;;;;;;-139.48;100.00;61774.03;5075041;28;20048;-70
2021/06/19 01:34:43;;;;;;;18.08;13.65;;;;;;;-139.48;100.00;61774.03;5074998;28;20434;-71
2021/06/19 01:37:30;;;;;;;21.58;13.52;;;;;;;-139.48;100.00;61774.03;5075047;28;20083;-70
2021/06/19 01:40:22;;;;;;;16.17;13.73;;;;;;;-139.48;100.00;61774.03;5076060;28;20082;-71
2021/06/19 01:43:06;;;;;;;27.42;15.98;;;;;;;-139.48;100.00;61774.03;5074925;28;20043;-70
2021/06/19 01:45:50;;;;;;;24.00;14.75;;;;;;;-139.48;100.00;61774.03;5074887;28;20530;-71
2021/06/19 01:48:34;;;;;;;22.83;14.30;;;;;;;-139.48;100.00;61774.03;5075002;28;20086;-71
2021/06/19 01:51:18;;;;;;;23.92;15.48;;;;;;;-139.48;100.00;61774.03;5074781;28;20100;-70
2021/06/19 01:54:02;;;;;;;21.75;13.98;;;;;;;-139.48;100.00;61774.03;5074473;28;20097;-70
2021/06/19 01:56:46;;;;;;;18.05;13.27;;;;;;;-139.48;100.00;61774.03;5074766;28;20141;-71
2021/06/19 01:59:30;;;;;;;21.02;14.30;;;;;;;-139.48;100.00;61774.03;5074642;28;20594;-71
2021/06/19 02:02:14;;;;;;;20.60;13.70;;;;;;;-139.48;100.00;61774.03;5074323;28;20101;-70
2021/06/19 02:04:58;;;;;;;16.63;13.23;;;;;;;-139.48;100.00;61774.03;5074662;28;20040;-71
2021/06/19 02:07:51;;;;;;;20.77;14.00;;;;;;;-139.48;100.00;61774.03;5074235;28;20090;-71
2021/06/19 02:10:37;;;;;;;23.65;14.27;;;;;;;-139.48;100.00;61774.03;5075293;28;20137;-70
2021/06/19 02:13:21;;;;;;;23.45;14.57;;;;;;;-139.48;100.00;61774.03;5074259;28;20149;-70
2021/06/19 02:16:05;;;;;;;25.88;15.85;;;;;;;-139.48;100.00;61774.03;5074359;28;20128;-71
2021/06/19 02:18:49;;;;;;;27.20;15.80;;;;;;;-139.48;100.00;61774.03;5073247;28;20409;-71
2021/06/19 02:21:33;;;;;;;21.25;14.50;;;;;;;-139.48;100.00;61774.03;5073857;28;20412;-71
2021/06/19 02:24:17;;;;;;;23.23;15.18;;;;;;;-139.48;100.00;61774.03;5060399;28;20052;-71
2021/06/19 02:27:11;;;;;;;25.77;14.27;;;;;;;-139.48;100.00;61774.03;5074591;28;20470;-71
2021/06/19 02:29:55;;;;;;;20.98;14.65;;;;;;;-139.48;100.00;61774.03;5074104;28;20447;-71
2021/06/19 02:32:39;;;;;;;24.48;14.40;;;;;;;-139.48;100.00;61774.03;5073992;28;20093;-70
2021/06/19 02:35:25;;;;;;;21.38;14.52;;;;;;;-139.48;100.00;61774.03;5073772;28;20094;-70
2021/06/19 02:38:09;;;;;;;17.88;13.40;;;;;;;-139.48;100.00;61774.03;5074170;28;20128;-71
2021/06/19 02:40:53;;;;;;;19.17;14.80;;;;;;;-139.48;100.00;61774.03;5073565;28;20047;-70
2021/06/19 02:43:37;;;;;;;22.27;15.40;;;;;;;-139.48;100.00;61774.03;5073709;28;20047;-70
2021/06/19 02:46:21;;;;;;;16.17;13.50;;;;;;;-139.48;100.00;61774.03;5073695;28;20523;-71
2021/06/19 02:49:05;;;;;;;18.08;13.18;;;;;;;-139.48;100.00;61774.03;5074422;28;20055;-70
2021/06/19 02:51:49;;;;;;;25.27;15.27;;;;;;;-139.48;100.00;61774.03;5073329;28;20536;-71
2021/06/19 02:54:33;;;;;;;21.80;14.57;;;;;;;-139.48;100.00;61774.03;5073605;28;20052;-70
2021/06/19 02:57:16;;;;;;;22.15;14.77;;;;;;;-139.48;100.00;61774.03;5073534;28;20181;-70
2021/06/19 03:00:01;;;;;;;;;;;;;;;-139.48;100.00;61774.03;5073965;28;20122;-70
2021/06/19 03:02:45;;;;;;;27.30;14.57;;;;;;;-139.48;100.00;61774.03;5073214;28;20288;-70
2021/06/19 03:05:30;;;;;;;16.00;14.30;;;;;;;-139.48;100.00;61774.03;5073176;28;20557;-70
2021/06/19 03:08:14;;;;;;;19.15;15.40;;;;;;;-139.48;100.00;61774.03;5073680;28;20043;-70
2021/06/19 03:10:58;;;;;;;24.05;15.30;;;;;;;-139.48;100.00;61774.03;5073141;28;20050;-70
2021/06/19 03:13:42;;;;;;;26.92;15.65;;;;;;;-139.48;100.00;61774.03;5087059;28;20051;-70
2021/06/19 03:16:26;;;;;;;29.40;16.25;;;;;;;-139.48;100.00;61774.03;5073368;28;20043;-70
2021/06/19 03:19:10;;;;;;;19.52;15.55;;;;;;;-139.48;100.00;61774.03;5073053;28;20098;-70
2021/06/19 03:21:57;;;;;;;;;;;;;;;-139.48;100.00;61774.03;5099548;22;20113;-67
2021/06/19 03:24:43;;;;;;;20.58;14.48;;;;;;;-139.48;100.00;61774.03;5093851;28;19926;-67
2021/06/19 03:27:27;;;;;;;17.27;13.88;;;;;;;-139.48;100.00;61774.03;5093096;28;20051;-67
2021/06/19 03:30:11;;;;;;;19.38;15.18;;;;;;;-139.48;100.00;61774.03;5093607;28;20139;-66
2021/06/19 03:32:56;;;;;;;20.38;16.13;;;;;;;-139.48;100.00;61774.03;5092911;28;20177;-67
2021/06/19 03:35:41;;;;;;;29.45;16.40;;;;;;;-139.48;100.00;61774.03;5092969;28;20178;-67
2021/06/19 03:38:25;;;;;;;22.02;14.52;;;;;;;-139.48;100.00;61774.03;5092800;28;20416;-67
2021/06/19 03:41:09;;;;;;;20.63;15.40;;;;;;;-139.48;100.00;61774.03;5092878;28;20109;-68
2021/06/19 03:43:53;;;;;;;24.23;15.25;;;;;;;-139.48;100.00;61774.03;5093545;28;20598;-67
2021/06/19 03:46:40;;;;;;;22.10;15.95;;;;;;;-139.48;100.00;61774.03;5093631;28;20054;-67
2021/06/19 03:49:25;;;;;;;22.88;15.30;;;;;;;-139.48;100.00;61774.03;5078282;28;20401;-67
2021/06/19 03:52:08;;;;;;;24.10;15.90;;;;;;;-139.48;100.00;61774.03;5092908;28;20050;-67
2021/06/19 03:54:52;;;;;;;21.08;16.50;;;;;;;-139.48;100.00;61774.03;5092419;28;20051;-68
2021/06/19 03:57:37;;;;;;;22.33;17.88;;;;;;;-139.48;100.00;61774.03;5093658;28;20208;-68
2021/06/19 04:00:21;;;;;;;25.63;17.58;;;;;;;-139.48;100.00;61774.03;5093650;28;20145;-68
2021/06/19 04:03:05;;;;;;;26.55;18.05;;;;;;;-139.48;100.00;61774.03;5092592;28;20051;-68
2021/06/19 04:05:49;;;;;;;21.85;16.58;;;;;;;-139.48;100.00;61774.03;5093634;28;20546;-68
2021/06/19 04:08:33;;;;;;;27.10;16.05;;;;;;;-139.48;100.00;61774.03;5092529;28;20405;-66
2021/06/19 04:11:17;;;;;;;26.70;17.90;;;;;;;-139.48;100.00;61774.03;5092842;28;20055;-67
2021/06/19 04:14:00;;;;;;;;;;;;;;;-139.48;100.00;61774.03;5078475;28;20048;-67
2021/06/19 04:16:44;;;;;;;25.27;17.95;;;;;;;-139.48;100.00;61774.03;5093212;28;19919;-68
2021/06/19 04:19:28;;;;;;;24.38;17.67;;;;;;;-139.48;100.00;61774.03;5093458;28;20047;-68
2021/06/19 04:22:13;;;;;;;22.42;16.88;;;;;;;-139.48;100.00;61774.03;5092172;28;20572;-67
2021/06/19 04:24:57;;;;;;;22.38;16.45;;;;;;;-139.48;100.00;61774.03;5092386;28;20093;-68
2021/06/19 04:27:50;;;;;;;24.75;17.20;;;;;;;-139.48;100.00;61774.03;5093448;28;20097;-68
2021/06/19 04:30:34;;;;;;;21.80;16.50;;;;;;;-139.48;100.00;61774.03;5092377;28;20554;-68
2021/06/19 04:33:18;;;;;;;20.58;16.23;;;;;;;-139.48;100.00;61774.03;5091946;28;20154;-68
2021/06/19 04:36:02;;;;;;;20.70;16.17;;;;;;;-139.48;100.00;61774.03;5093607;28;20047;-67
2021/06/19 04:38:46;;;;;;;28.33;17.02;;;;;;;-139.48;100.00;61774.03;5092284;28;20051;-68
2021/06/19 04:41:51;;;;;;;24.95;16.17;;;;;;;-139.48;100.00;61774.03;5093931;28;20101;-67
2021/06/19 04:47:39;;;;;;;27.02;17.38;;;;;;;-139.48;100.00;61774.03;5096016;28;20051;-67
2021/06/19 04:50:23;;;;;;;21.95;16.45;;;;;;;-139.48;100.00;61774.03;5096949;28;20138;-67
2021/06/19 04:53:07;;;;;;;26.98;15.88;;;;;;;-139.48;100.00;61774.03;5081799;28;20577;-68
2021/06/19 04:55:52;;;;;;;21.83;16.38;;;;;;;-139.48;100.00;61774.03;5096724;28;20093;-68
2021/06/19 04:58:36;;;;;;;24.45;17.00;;;;;;;-139.48;100.00;61774.03;5081522;28;20136;-67
2021/06/19 05:01:20;;;;;;;22.63;16.20;;;;;;;-139.48;100.00;61774.03;5095648;28;20046;-68
2021/06/19 05:04:04;;;;;;;19.60;15.85;;;;;;;-139.48;100.00;61774.03;5095923;28;20537;-68
2021/06/19 05:06:48;;;;;;;20.33;16.10;;;;;;;-139.48;100.00;61774.03;5095656;28;20063;-68
2021/06/19 05:09:32;;;;;;;;;;;;;;;-139.48;100.00;61774.03;5097206;28;20047;-66
2021/06/19 05:12:16;;;;;;;21.13;14.82;;;;;;;-139.48;100.00;61774.03;5081023;28;19939;-68
2021/06/19 05:15:01;;;;;;;;;;;;;;;-139.48;100.00;61774.03;5095887;28;20415;-65
2021/06/19 05:17:45;;;;;;;23.83;15.40;;;;;;;-139.48;100.00;61774.03;5095638;28;20053;-68
2021/06/19 05:20:30;;;;;;;24.42;16.15;;;;;;;-139.48;100.00;61774.03;5096539;28;20043;-68
2021/06/19 05:23:14;;;;;;;22.85;15.80;;;;;;;-139.48;100.00;61774.03;5095083;28;20523;-68
2021/06/19 05:25:58;;;;;;;21.92;15.05;;;;;;;-139.48;100.00;61774.03;5095172;28;20134;-68
2021/06/19 05:28:42;;;;;;;19.83;14.40;;;;;;;-139.48;100.00;61774.03;5095353;28;20093;-67
2021/06/19 05:31:26;;;;;;;27.65;14.27;;;;;;;-139.48;100.00;61774.03;5095038;28;20051;-65
2021/06/19 05:34:11;;;;;;;22.42;14.23;;;;;;;-139.48;100.00;61774.03;5094927;28;20413;-68
2021/06/19 05:36:55;;;;;;;24.92;16.10;;;;;;;-139.48;100.00;61774.03;5095548;28;20417;-68
2021/06/19 05:39:39;;;;;;;20.80;14.55;;;;;;;-139.48;100.00;61774.03;5096238;28;20047;-68
2021/06/19 05:42:23;;;;;;;18.10;14.18;;;;;;;-139.48;100.00;61774.03;5095185;28;20083;-68
2021/06/19 05:45:08;;;;;;;19.05;14.30;;;;;;;-139.48;100.00;61774.03;5096087;28;20488;-68
2021/06/19 05:47:52;;;;;;;20.08;13.48;;;;;;;-139.48;100.00;61774.03;5095998;28;20101;-68
2021/06/19 05:50:37;;;;;;;19.65;13.55;;;;;;;-139.48;100.00;61774.03;5096028;28;20051;-68
2021/06/19 05:53:22;;;;;;;15.25;11.95;;;;;;;-139.48;100.00;61774.03;5095566;28;20047;-67
2021/06/19 05:56:07;;;;;;;19.27;11.95;;;;;;;-139.48;100.00;61774.03;5081112;28;20097;-68
2021/06/19 05:58:51;;;;;;;17.35;12.48;;;;;;;-139.48;100.00;61774.03;5094800;28;20051;-68
2021/06/19 06:01:35;;;;;;;;;;;;;;;-139.48;100.00;61774.03;5095828;28;20101;-65
2021/06/19 06:04:19;;;;;;;17.13;12.07;;;;;;;-139.48;100.00;61774.03;5094506;28;19918;-68
2021/06/19 06:07:03;;;;;;;14.10;12.07;;;;;;;-139.48;100.00;61774.03;5095602;28;20412;-66
2021/06/19 06:09:47;;;;;;;19.90;11.05;;;;;;;-139.48;100.00;61774.03;5095439;28;20130;-68
2021/06/19 06:12:32;;;;;;;14.15;10.63;;;;;;;-139.48;100.00;61774.03;5095207;28;20051;-68
2021/06/19 06:15:16;;;;;;;15.85;11.20;;;;;;;-139.48;100.00;61774.03;5094427;28;20103;-67
2021/06/19 06:18:00;;;;;;;23.17;11.60;;;;;;;-139.48;100.00;61774.03;5094189;28;20050;-65
2021/06/19 06:20:44;;;;;;;19.85;10.27;;;;;;;-139.48;100.00;61774.03;5095202;28;20046;-68
2021/06/19 06:23:28;;;;;;;20.00;10.80;;;;;;;-139.48;100.00;61774.03;5094847;28;20093;-68
2021/06/19 06:26:13;;;;;;;11.23;9.02;;;;;;;-139.48;100.00;61774.03;5094306;28;20555;-68
2021/06/19 06:28:57;;;;;;;13.15;10.52;;;;;;;-139.48;100.00;61774.03;5094285;28;20503;-67
2021/06/19 06:31:41;;;;;;;15.10;10.38;;;;;;;-139.48;100.00;61774.03;5094975;28;20104;-67
2021/06/19 06:34:24;;;;;;;;;;;;;;;-139.48;100.00;61774.03;5094469;28;20124;-67
2021/06/19 06:37:08;;;;;;;14.30;9.67;;;;;;;-139.48;100.00;61774.03;5094376;28;19961;-67
2021/06/19 06:39:52;;;;;;;;;;;;;;;-139.48;100.00;61774.03;5095535;28;20334;-67
2021/06/19 06:42:40;;;;;;;16.63;9.17;;;;;;;-139.48;100.00;61774.03;5093921;28;20015;-67
2021/06/19 06:45:24;;;;;;;10.18;8.93;;;;;;;-139.48;100.00;61774.03;5093973;28;20349;-67
2021/06/19 06:48:08;;;;;;;17.17;9.48;;;;;;;-139.48;100.00;61774.03;5093530;28;20565;-68
2021/06/19 06:50:52;;;;;;;;;;;;;;;-139.48;100.00;61774.03;5080011;28;20100;-67
2021/06/19 06:53:36;;;;;;;13.18;8.18;;;;;;;-139.48;100.00;61774.03;5094397;28;19923;-68
2021/06/19 06:56:20;;;;;;;;;;;;;;;-139.48;100.00;61774.03;5094128;28;20512;-69
2021/06/19 06:59:04;;;;;;;12.57;7.25;;;;;;;-139.48;100.00;61774.03;5093719;28;19919;-67
2021/06/19 07:01:48;;;;;;;9.85;7.47;;;;;;;-139.48;100.00;61774.03;5079178;28;20050;-67
2021/06/19 07:04:32;;;;;;;12.82;7.15;;;;;;;-139.48;100.00;61774.03;5078388;28;20413;-67
2021/06/19 07:07:16;;;;;;;10.48;7.50;;;;;;;-139.48;100.00;61774.03;5094179;28;20051;-67
2021/06/19 07:10:00;;;;;;;;;;;;;;;-139.48;100.00;61774.03;5093874;28;20059;-67
2021/06/19 07:12:45;;;;;;;8.80;6.60;;;;;;;-139.48;100.00;61774.03;5093367;28;19919;-67
2021/06/19 07:15:29;;;;;;;12.38;7.15;;;;;;;-139.48;100.00;61774.03;5093234;28;20248;-67
2021/06/19 07:18:13;;;;;;;8.00;6.07;;;;;;;-139.48;100.00;61774.03;5094359;28;20104;-67
2021/06/19 07:20:56;;;;;;;;;;;;;;;-139.48;100.00;61774.03;5094695;28;20050;-67
2021/06/19 07:23:40;;;;;;;10.32;6.88;;;;;;;-139.48;100.00;61774.03;5078408;28;20004;-67
2021/06/19 07:26:24;;;;;;;8.18;5.72;;;;;;;-139.48;100.00;61774.03;5092931;28;20054;-68
2021/06/19 07:29:08;;;;;;;13.80;6.75;;;;;;;-139.48;100.00;61774.03;5092907;28;20050;-67
2021/06/19 07:31:52;;;;;;;;;;;;;;;-139.48;100.00;61774.03;5093623;28;20093;-67
2021/06/19 07:34:36;;;;;;;9.73;5.85;;;;;;;-139.48;100.00;61774.03;5092735;28;19923;-68
2021/06/19 07:37:20;;;;;;;;;;;;;;;-139.48;100.00;61774.03;5094407;28;20047;-68
2021/06/19 07:40:05;;;;;;;10.20;5.38;;;;;;;-139.48;100.00;61774.03;5093954;28;19919;-68
2021/06/19 07:42:49;;;;;;;9.93;5.10;;;;;;;-139.48;100.00;61774.03;5093486;28;20100;-67
2021/06/19 07:45:33;;;;;;;8.43;5.43;;;;;;;-139.48;100.00;61774.03;5078497;28;20427;-67
2021/06/19 07:48:17;;;;;;;8.75;5.30;;;;;;;-139.48;100.00;61774.03;5092765;28;20070;-67
2021/06/19 07:51:01;;;;;;;6.05;4.82;;;;;;;-139.48;100.00;61774.03;5092475;28;20050;-67
2021/06/19 07:53:45;;;;;;;9.15;5.20;;;;;;;-139.48;100.00;61774.03;5093341;28;20472;-68
2021/06/19 07:56:28;;;;;;;6.13;5.50;;;;;;;-139.48;100.00;61774.03;5093064;28;20449;-68
2021/06/19 07:59:13;;;;;;;8.13;4.70;;;;;;;-139.48;100.00;61774.03;5093422;28;20050;-67
2021/06/19 08:01:57;;;;;;;11.10;5.20;;;;;;;-139.48;100.00;61774.03;5093288;28;20047;-68
2021/06/19 08:04:41;;;;;;;11.00;5.25;;;;;;;-139.48;100.00;61774.03;5092856;28;20035;-67
2021/06/19 08:07:25;;;;;;;;;;;;;;;-139.48;100.00;61774.03;5093885;28;20047;-67
2021/06/19 08:10:10;;;;;;;8.57;5.18;;;;;;;-139.48;100.00;61774.03;5092310;28;19919;-68
2021/06/19 08:12:54;;;;;;;6.28;5.43;;;;;;;-139.48;100.00;61774.03;5093183;28;20038;-67
2021/06/19 08:15:39;;;;;;;8.68;5.60;;;;;;;-139.48;100.00;61774.03;5079247;28;20066;-68
2021/06/19 08:18:23;;;;;;;9.35;5.32;;;;;;;-139.48;100.00;61774.03;5096423;28;20596;-68
2021/06/19 08:21:07;;;;;;;12.10;5.40;;;;;;;-139.48;100.00;61774.03;5096607;28;20101;-67
2021/06/19 08:23:51;;;;;;;;;;;;;;;-139.48;100.00;61774.03;5096521;28;20088;-67
2021/06/19 08:26:37;;;;;;;8.70;5.25;;;;;;;-139.48;100.00;61774.03;5097611;28;20292;-68
2021/06/19 08:29:21;;;;;;;10.70;4.80;;;;;;;-139.48;100.00;61774.03;5096435;28;20132;-68
2021/06/19 08:32:08;;;;;;;6.03;5.00;;;;;;;-139.48;100.00;61774.03;5096022;28;20097;-68
2021/06/19 08:34:53;;;;;;;7.63;4.60;;;;;;;-139.48;100.00;61774.03;5096946;28;20496;-68
2021/06/19 08:37:38;;;;;;;8.75;5.10;;;;;;;-139.48;100.00;61774.03;5096451;28;20071;-68
2021/06/19 08:40:22;;;;;;;11.65;5.00;;;;;;;-139.48;100.00;61774.03;5096160;28;20051;-68
2021/06/19 08:43:06;;;;;;;8.85;5.63;;;;;;;-139.48;100.00;61774.03;5097110;28;20097;-68
2021/06/19 08:45:50;;;;;;;;;;;;;;;-139.48;100.00;61774.03;5096570;28;20078;-68
2021/06/19 08:48:34;;;;;;;11.50;5.20;;;;;;;-139.48;100.00;61774.03;5096207;28;19919;-67
2021/06/19 08:51:20;;;;;;;5.47;4.75;;;;;;;-139.48;100.00;61774.03;5081879;28;20086;-68
2021/06/19 08:54:04;;;;;;;6.88;4.80;;;;;;;-139.48;100.00;61774.03;5096120;28;20401;-70
2021/06/19 08:56:48;;;;;;;6.22;4.40;;;;;;;-139.48;100.00;61774.03;5097019;28;20043;-66
2021/06/19 08:59:33;;;;;;;11.10;4.68;;;;;;;-139.48;100.00;61774.03;5095634;28;20081;-67
2021/06/19 09:02:16;;;;;;;;;;;;;;;-139.48;100.00;61774.03;5096894;28;20409;-66
2021/06/19 09:05:06;;;;;;;7.18;4.32;;;;;;;-139.48;100.00;61774.03;5096736;28;19965;-67
2021/06/19 09:07:52;;;;;;;6.38;4.03;;;;;;;-139.48;100.00;61774.03;5095583;28;20046;-67
2021/06/19 09:10:37;;;;;;;6.72;3.97;;;;;;;-139.48;100.00;61774.03;5095491;28;20047;-67
2021/06/19 09:13:22;;;;;;;8.45;3.65;;;;;;;-139.48;100.00;61774.03;5095245;28;20070;-67
2021/06/19 09:16:06;;;;;;;7.63;4.40;;;;;;;-139.48;100.00;61774.03;5095313;28;20177;-67
2021/06/19 09:18:50;;;;;;;;;;;;;;;-139.48;100.00;61774.03;5096014;28;20098;-66
2021/06/19 09:21:35;;;;;;;10.02;5.00;;;;;;;-139.48;100.00;61774.03;5095838;28;19962;-67
2021/06/19 09:24:46;;;;;;;8.38;4.18;;;;;;;-139.48;100.00;61774.03;5096684;28;20051;-66
2021/06/19 09:27:42;;;;;;;11.90;4.60;;;;;;;-139.48;100.00;61774.03;5095754;28;20414;-66
2021/06/19 09:30:28;;;;;;;8.77;4.45;;;;;;;-139.48;100.00;61774.03;5095298;28;20500;-66
2021/06/19 09:33:12;;;;;;;10.25;4.60;;;;;;;-139.48;100.00;61774.03;5094953;28;20101;-66
2021/06/19 09:35:56;;;;;;;6.68;4.40;;;;;;;-139.48;100.00;61774.03;5095902;28;20561;-66
2021/06/19 09:39:00;;;;;;;8.50;4.10;;;;;;;-139.48;100.00;61774.03;5095218;28;20518;-66
2021/06/19 09:41:47;;;;;;;7.17;3.83;;;;;;;-139.48;100.00;61774.03;5080528;28;20074;-66
2021/06/19 09:44:45;;;;;;;10.23;3.53;;;;;;;-139.48;100.00;61774.03;5096376;28;20054;-65
2021/06/19 09:47:41;;;;;;;8.35;4.93;;;;;;;-139.48;100.00;61774.03;5094834;28;20176;-66
2021/06/19 09:50:25;;;;;;;12.15;4.53;;;;;;;-139.48;100.00;61774.03;5094698;28;20088;-66
2021/06/19 09:53:13;;;;;;;13.70;4.55;;;;;;;-139.48;100.00;61774.03;5094872;28;20104;-66
2021/06/19 09:56:04;;;;;;;9.10;4.70;;;;;;;-139.48;100.00;61774.03;5095662;28;20050;-66
2021/06/19 09:58:51;;;;;;;9.07;4.50;;;;;;;-139.48;100.00;61774.03;5094560;28;20097;-66
2021/06/19 10:01:37;;;;;;;6.32;4.53;;;;;;;-139.48;100.00;61774.03;5094743;28;20574;-66
2021/06/19 10:04:22;;;;;;;10.55;4.93;;;;;;;-139.48;100.00;61774.03;5095416;28;20047;-65
2021/06/19 10:07:07;;;;;;;9.07;5.60;;;;;;;-139.48;100.00;61774.03;5095661;28;20412;-65
2021/06/19 10:09:56;;;;;;;13.23;6.15;;;;;;;-139.48;100.00;61774.03;5080253;28;20120;-66
2021/06/19 10:12:40;;;;;;;11.27;6.43;;;;;;;-139.48;100.00;61774.03;5095162;28;20096;-66
2021/06/19 10:15:24;;;;;;;7.60;6.18;;;;;;;-139.48;100.00;61774.03;5094244;28;20516;-66
2021/06/19 10:18:08;;;;;;;11.57;6.80;;;;;;;-139.48;100.00;61774.03;5094669;28;20515;-66
2021/06/19 10:20:52;;;;;;;6.82;5.60;;;;;;;-139.48;100.00;61774.03;5094324;28;20135;-66
2021/06/19 10:23:37;;;;;;;9.93;6.13;;;;;;;-139.48;100.00;61774.03;5079628;28;20132;-66
2021/06/19 10:26:24;;;;;;;10.88;6.03;;;;;;;-139.48;100.00;61774.03;5094027;28;20043;-66
2021/06/19 10:29:10;;;;;;;7.97;6.32;;;;;;;-139.48;100.00;61774.03;5094363;28;20079;-66
2021/06/19 10:31:55;;;;;;;9.95;6.30;;;;;;;-139.48;100.00;61774.03;5093895;28;20412;-66
2021/06/19 10:34:50;;;;;;;12.98;6.40;;;;;;;-139.48;100.00;61774.03;5093649;28;20101;-66
2021/06/19 10:37:35;;;;;;;12.07;6.47;;;;;;;-139.48;100.00;61774.03;5094656;28;20042;-66
2021/06/19 10:40:19;;;;;;;9.68;6.22;;;;;;;-139.48;100.00;61774.03;5093010;28;20059;-66
2021/06/19 10:43:12;;;;;;;9.48;6.45;;;;;;;-139.48;100.00;61774.03;5094871;28;20132;-66
2021/06/19 10:46:27;;;;;;;12.70;5.82;;;;;;;-139.48;100.00;61774.03;5093883;28;20082;-66
2021/06/19 10:49:20;;;;;;;13.32;6.53;;;;;;;-139.48;100.00;61774.03;5093742;28;20127;-66
2021/06/19 10:52:31;;;;;;;9.75;5.80;;;;;;;-139.48;100.00;61774.03;5094887;28;20054;-67
2021/06/19 10:55:17;;;;;;;10.35;6.13;;;;;;;-139.48;100.00;61774.03;5094657;28;20147;-66
2021/06/19 10:58:05;;;;;;;9.43;6.40;;;;;;;-139.48;100.00;61774.03;5094383;28;20050;-66
2021/06/19 11:00:53;;;;;;;7.75;5.28;;;;;;;-139.48;100.00;61774.03;5093317;28;20124;-66
2021/06/19 11:03:48;;;;;;;11.98;5.93;;;;;;;-139.48;100.00;61774.03;5093124;28;20074;-67
2021/06/19 11:06:39;;;;;;;15.93;6.65;;;;;;;-139.48;100.00;61774.03;5093171;28;20504;-66
2021/06/19 11:09:41;;;;;;;13.15;5.80;;;;;;;-139.48;100.00;61774.03;5093432;28;20078;-66
2021/06/19 11:12:30;;;;;;;12.63;5.75;;;;;;;-139.48;100.00;61774.03;5093001;28;20470;-66
2021/06/19 11:15:14;;;;;;;10.65;5.88;;;;;;;-139.48;100.00;61774.03;5092992;28;20047;-66
2021/06/19 11:17:58;;;;;;;12.70;5.80;;;;;;;-139.48;100.00;61774.03;5078965;28;20101;-66
2021/06/19 11:20:41;;;;;;;12.40;5.68;;;;;;;-139.48;100.00;61774.03;5078905;28;20054;-66
2021/06/19 11:23:25;;;;;;;10.45;6.63;;;;;;;-139.48;100.00;61774.03;5092742;28;20051;-66
2021/06/19 11:27:09;;;;;;;11.45;5.82;;;;;;;-139.48;100.00;61774.03;5093333;28;20046;-67
2021/06/19 11:29:52;;;;;;;14.18;6.38;;;;;;;-139.48;100.00;61774.03;5094227;28;20046;-67
2021/06/19 11:32:36;;;;;;;10.88;6.05;;;;;;;-139.48;100.00;61774.03;5092620;28;20046;-67
2021/06/19 11:35:21;;;;;;;12.75;5.97;;;;;;;-139.48;100.00;61774.03;5093556;28;20089;-66
2021/06/19 11:38:05;;;;;;;15.00;6.35;;;;;;;-139.48;100.00;61774.03;5092950;28;20039;-66
2021/06/19 11:40:49;;;;;;;12.65;6.53;;;;;;;-139.48;100.00;61774.03;5093757;28;20133;-66
2021/06/19 11:43:33;;;;;;;13.13;6.18;;;;;;;-139.48;100.00;61774.03;5092827;28;20151;-66
2021/06/19 11:46:19;;;;;;;9.57;6.32;;;;;;;-139.48;100.00;61774.03;5092825;28;20055;-66
2021/06/19 11:49:08;;;;;;;13.15;6.53;;;;;;;-139.48;100.00;61774.03;5092664;28;20050;-66
2021/06/19 11:51:53;;;;;;;11.43;6.00;;;;;;;-139.48;100.00;61774.03;5092677;28;20082;-66
2021/06/19 11:54:43;;;;;;;14.68;6.30;;;;;;;-139.48;100.00;61774.03;5092662;28;20073;-66
2021/06/19 11:57:29;;;;;;;12.63;6.55;;;;;;;-139.48;100.00;61774.03;5093413;28;20101;-66
2021/06/19 12:00:18;;;;;;;11.05;6.28;;;;;;;-139.48;100.00;61774.03;5092680;28;20511;-67
2021/06/19 12:03:03;;;;;;;13.38;6.72;;;;;;;-139.48;100.00;61774.03;5078615;28;20561;-66
2021/06/19 12:05:47;;;;;;;12.77;6.78;;;;;;;-139.48;100.00;61774.03;5092522;28;20440;-66
2021/06/19 12:08:32;;;;;;;14.07;5.93;;;;;;;-139.48;100.00;61774.03;5092430;28;20042;-66
2021/06/19 12:11:25;;;;;;;11.40;6.32;;;;;;;-139.48;100.00;61774.03;5092784;28;20452;-67
2021/06/19 12:14:31;;;;;;;13.25;6.45;;;;;;;-139.48;100.00;61774.03;5092144;28;20123;-66
2021/06/19 12:17:15;;;;;;;13.23;6.93;;;;;;;-139.48;100.00;61774.03;5092420;28;20050;-66
2021/06/19 12:19:59;;;;;;;18.77;7.55;;;;;;;-139.48;100.00;61774.03;5078197;28;20055;-66
2021/06/19 12:22:43;;;;;;;17.60;6.72;;;;;;;-139.48;100.00;61774.03;5093169;28;20136;-66
2021/06/19 12:25:35;;;;;;;11.40;6.50;;;;;;;-139.48;100.00;61774.03;5093130;28;20250;-66
2021/06/19 12:28:21;;;;;;;22.77;6.80;;;;;;;-139.48;100.00;61774.03;5093138;28;20085;-66
2021/06/19 12:31:06;;;;;;;15.85;6.50;;;;;;;-139.48;100.00;61774.03;5093117;28;20043;-67